Cadillac, MI (49601)

10:28 PM EDT on August 24, 2016 (GMT -0400)
JW Lake Cadillac | | Change Station

Elev 1299 ft 44.24 °N, 85.41 °W | Updated 11 minutes ago

Overcast
Overcast
72.7 °F
Feels Like 72 °F
N
2.7
Wind Variable Wind from NNW

Today
High -- | Low -- °F
--% Chance of Precip.
Yesterday
High -- | Low -- °F
Precip. -- in
Pressure 29.94 in
Visibility 10.0 miles
Clouds Scattered Clouds 1500 ft
Mostly Cloudy 1900 ft
Overcast 2500 ft
Heat Index 72 °F
Dew Point 68 °F
Humidity 85%
Rainfall 0.00 in
Snow Depth Not available.
6:56 AM 8:31 PM
Waning Gibbous, 51% visible
METAR KCAD 250215Z AUTO 22006KT 10SM SCT015 BKN019 OVC025 22/20 A2994 RMK AO2 T02260205
Pressure 29.94 in
Visibility 10.0 miles
Clouds Scattered Clouds 1500 ft
Mostly Cloudy 1900 ft
Overcast 2500 ft
Heat Index 72 °F
Dew Point 68 °F
Humidity 85%
Rainfall 0.00 in
Snow Depth Not available.
6:56 AM 8:31 PM
Waning Gibbous, 51% visible
METAR KCAD 250215Z AUTO 22006KT 10SM SCT015 BKN019 OVC025 22/20 A2994 RMK AO2 T02260205

10-Day Weather Forecast

Almanac

Astronomy

Aug. 24, 2016 Rise Set
Actual Time
Civil Twilight
Nautical Twilight
Astronomical Twilight
Moon
Length of Visible Light
Length of Day
Tomorrow will be .
, % of the Moon is Illuminated

Today's Extremes

State Highs State Lows

Community

WunderPhotos

Upload Photos

1,934,778 photos uploaded!

WunderBlog® & News

Nearby

Air Quality

  Air Quality AQ Index Pollutant
Not available.

Snow Depth

Station Depth Elevation

Earthquake Activity

City Distance Mag. Time & Date
Minimum magnitude displayed is 2.5.

Coastal Water Temperatures

Place Temperature

Stations

Nearby Weather Stations

Station Location Temp. Windchill Dew Point Humidity Wind Precip. Elev Updated Type
                   

Watches & Warnings

There are currently no watches in effect.